createdAt,value
2022-08-05T00:01:28.633Z,101793.56
2022-08-05T00:03:56.980Z,101780.09
2022-08-05T00:06:32.137Z,101784.63
2022-08-05T00:09:00.390Z,101789.75
2022-08-05T00:11:34.614Z,101796.63
2022-08-05T00:14:12.854Z,101801.84
2022-08-05T00:16:52.729Z,101805.38
2022-08-05T00:19:22.548Z,101831.97
2022-08-05T00:21:50.103Z,101821.19
2022-08-05T00:24:19.305Z,101800.81
2022-08-05T00:26:53.191Z,101790.94
2022-08-05T00:29:22.723Z,101793.00
2022-08-05T00:32:10.193Z,101802.97
2022-08-05T00:35:05.676Z,101795.72
2022-08-05T00:37:35.792Z,101792.19
2022-08-05T00:40:27.408Z,101772.00
2022-08-05T00:42:57.880Z,101778.41
2022-08-05T00:45:28.177Z,101778.56
2022-08-05T00:48:07.409Z,101769.84
2022-08-05T00:50:34.521Z,101779.97
2022-08-05T00:53:02.513Z,101786.59
2022-08-05T00:55:33.998Z,101790.97
2022-08-05T00:58:11.398Z,101789.47
2022-08-05T01:00:39.547Z,101791.13
2022-08-05T01:03:07.892Z,101798.75
2022-08-05T01:05:35.007Z,101785.81
2022-08-05T01:08:41.291Z,101787.41
2022-08-05T01:10:56.608Z,101793.22
2022-08-05T01:13:57.421Z,101780.97
2022-08-05T01:16:30.624Z,101793.97
2022-08-05T01:19:12.124Z,101793.81
2022-08-05T01:21:55.844Z,101802.72
2022-08-05T01:24:53.598Z,101804.59
2022-08-05T01:27:50.787Z,101804.28
2022-08-05T01:30:34.353Z,101805.25
2022-08-05T01:36:02.572Z,101791.78
2022-08-05T01:38:31.961Z,101791.34
2022-08-05T01:41:01.306Z,101792.81
2022-08-05T01:43:29.455Z,101794.84
2022-08-05T01:45:57.737Z,101802.44
2022-08-05T01:48:27.206Z,101804.94
2022-08-05T01:50:56.798Z,101804.94
2022-08-05T01:53:54.685Z,101816.88
2022-08-05T01:58:09.774Z,101809.03
2022-08-05T01:59:04.769Z,101809.72
2022-08-05T02:01:39.862Z,101811.88
2022-08-05T02:04:08.464Z,101817.25
2022-08-05T02:06:38.779Z,101822.66
2022-08-05T02:09:06.936Z,101825.69
2022-08-05T02:11:52.600Z,101825.03
2022-08-05T02:14:28.814Z,101814.75
2022-08-05T02:17:17.029Z,101807.50
2022-08-05T02:20:01.730Z,101813.81
2022-08-05T02:22:36.567Z,101806.56
2022-08-05T02:25:22.130Z,101803.31
2022-08-05T02:27:59.128Z,101796.25
2022-08-05T02:30:34.418Z,101799.97
2022-08-05T02:33:03.034Z,101804.53
2022-08-05T02:35:37.685Z,101806.03
2022-08-05T02:38:12.487Z,101798.78
2022-08-05T02:40:46.535Z,101804.63
2022-08-05T02:43:16.637Z,101807.59
2022-08-05T02:45:52.331Z,101801.72
2022-08-05T02:48:29.487Z,101803.41
2022-08-05T02:50:59.266Z,101792.63
2022-08-05T02:53:26.214Z,101795.72
2022-08-05T02:56:00.244Z,101804.81
2022-08-05T02:58:30.101Z,101799.97
2022-08-05T03:01:00.900Z,101799.88
2022-08-05T03:03:34.110Z,101790.84
2022-08-05T03:06:53.576Z,101801.97
2022-08-05T03:09:04.735Z,101805.25
2022-08-05T03:11:55.743Z,101791.28
2022-08-05T03:14:18.269Z,101787.66
2022-08-05T03:16:45.715Z,101783.94
2022-08-05T03:19:33.056Z,101790.00
2022-08-05T03:21:59.486Z,101785.63
2022-08-05T03:24:30.132Z,101782.09
2022-08-05T03:26:59.243Z,101787.97
2022-08-05T03:29:45.959Z,101788.13
2022-08-05T03:32:14.361Z,101795.56
2022-08-05T03:34:42.150Z,101792.88
2022-08-05T03:37:18.280Z,101799.47
2022-08-05T03:40:01.124Z,101804.22
2022-08-05T03:42:32.814Z,101805.25
2022-08-05T03:45:01.868Z,101805.41
2022-08-05T03:47:46.600Z,101800.03
2022-08-05T03:50:15.830Z,101805.41
2022-08-05T03:55:49.718Z,101801.72
2022-08-05T03:56:11.461Z,101803.56
2022-08-05T03:58:46.868Z,101795.00
2022-08-05T04:01:20.959Z,101798.34
2022-08-05T04:04:09.132Z,101802.72
2022-08-05T04:06:37.375Z,101802.25
2022-08-05T04:09:05.990Z,101803.41
2022-08-05T04:11:47.539Z,101808.66
2022-08-05T04:14:17.838Z,101816.56
2022-08-05T04:16:44.907Z,101818.59
2022-08-05T04:19:12.710Z,101823.13
2022-08-05T04:22:10.082Z,101824.31
2022-08-05T04:24:27.621Z,101820.78
2022-08-05T04:26:54.317Z,101828.53
2022-08-05T04:29:20.927Z,101816.03
2022-08-05T04:31:48.207Z,101818.75
2022-08-05T04:34:31.493Z,101817.91
2022-08-05T04:37:00.109Z,101813.34
2022-08-05T04:39:27.830Z,101820.78
2022-08-05T04:41:54.530Z,101823.13
2022-08-05T04:44:29.987Z,101826.81
2022-08-05T04:46:58.458Z,101818.28
2022-08-05T04:49:38.388Z,101819.56
2022-08-05T04:52:12.269Z,101825.31
2022-08-05T04:54:38.793Z,101830.03
2022-08-05T04:57:05.401Z,101831.88
2022-08-05T04:59:38.761Z,101829.38
2022-08-05T05:02:36.521Z,101824.47
2022-08-05T05:05:02.787Z,101837.78
2022-08-05T05:07:32.827Z,101828.22
2022-08-05T05:10:06.311Z,101836.75
2022-08-05T05:12:33.390Z,101832.38
2022-08-05T05:15:03.756Z,101833.22
2022-08-05T05:17:55.949Z,101834.06
2022-08-05T05:20:28.807Z,101835.09
2022-08-05T05:22:55.931Z,101829.53
2022-08-05T05:25:32.994Z,101821.28
2022-08-05T05:28:07.700Z,101822.97
2022-08-05T05:30:36.216Z,101819.06
2022-08-05T05:33:16.077Z,101827.25
2022-08-05T05:35:47.906Z,101832.28
2022-08-05T05:38:15.139Z,101831.28
2022-08-05T05:40:51.342Z,101834.28
2022-08-05T05:43:57.246Z,101835.56
2022-08-05T05:46:17.492Z,101832.03
2022-08-05T05:48:47.866Z,101838.72
2022-08-05T05:51:22.139Z,101845.44
2022-08-05T05:53:57.273Z,101840.72
2022-08-05T05:56:32.406Z,101837.63
2022-08-05T05:59:03.567Z,101835.03
2022-08-05T06:01:37.416Z,101828.81
2022-08-05T06:04:11.647Z,101832.44
2022-08-05T06:06:41.857Z,101826.19
2022-08-05T06:09:08.876Z,101823.63
2022-08-05T06:11:43.491Z,101825.94
2022-08-05T06:14:27.956Z,101831.78
2022-08-05T06:16:54.719Z,101826.22
2022-08-05T06:19:26.134Z,101832.25
2022-08-05T06:22:00.882Z,101830.91
2022-08-05T06:24:27.483Z,101835.94
2022-08-05T06:26:53.989Z,101834.53
2022-08-05T06:29:23.847Z,101836.84
2022-08-05T06:32:25.411Z,101842.72
2022-08-05T06:34:56.662Z,101847.28
2022-08-05T06:37:55.931Z,101855.66
2022-08-05T06:40:14.043Z,101854.44
2022-08-05T06:42:45.555Z,101862.34
2022-08-05T06:45:12.969Z,101870.06
2022-08-05T06:48:46.945Z,101871.94
2022-08-05T06:50:34.518Z,101881.34
2022-08-05T06:53:11.305Z,101873.25
2022-08-05T06:55:38.521Z,101878.81
2022-08-05T06:58:29.097Z,101876.59
2022-08-05T07:00:58.537Z,101884.47
2022-08-05T07:03:28.047Z,101883.66
2022-08-05T07:06:01.927Z,101888.22
2022-08-05T07:08:32.920Z,101896.13
2022-08-05T07:10:59.669Z,101897.78
2022-08-05T07:13:57.839Z,101897.78
2022-08-05T07:18:00.824Z,101897.44
2022-08-05T07:20:29.866Z,101898.44
2022-08-05T07:22:17.464Z,101909.72
2022-08-05T07:24:52.730Z,101908.69
2022-08-05T07:27:20.256Z,101905.81
2022-08-05T07:30:28.014Z,101915.78
2022-08-05T07:32:38.372Z,101912.22
2022-08-05T07:36:01.623Z,101923.88
2022-08-05T07:37:56.380Z,101929.53
2022-08-05T07:40:31.462Z,101923.09
2022-08-05T07:42:59.272Z,101925.63
2022-08-05T07:45:56.775Z,101929.16
2022-08-05T07:49:02.569Z,101939.78
2022-08-05T07:51:06.391Z,101947.69
2022-08-05T07:53:51.182Z,101952.06
2022-08-05T07:57:02.704Z,101935.88
2022-08-05T07:59:05.259Z,101944.81
2022-08-05T08:01:35.144Z,101955.44
2022-08-05T08:04:08.044Z,101955.03
2022-08-05T08:06:34.777Z,101952.34
2022-08-05T08:09:01.319Z,101949.44
2022-08-05T08:11:48.156Z,101967.19
2022-08-05T08:14:18.249Z,101966.34
2022-08-05T08:16:50.695Z,101967.50
2022-08-05T08:20:21.652Z,101973.75
2022-08-05T08:22:05.156Z,101988.50
2022-08-05T08:24:51.066Z,101976.19
2022-08-05T08:27:18.749Z,101987.34
2022-08-05T08:30:05.819Z,101988.56
2022-08-05T08:32:36.185Z,101988.09
2022-08-05T08:35:13.558Z,101997.41
2022-08-05T08:37:45.063Z,101990.72
2022-08-05T08:40:12.641Z,101994.59
2022-08-05T08:42:50.476Z,101987.91
2022-08-05T08:45:26.720Z,101991.66
2022-08-05T08:48:11.378Z,101987.44
2022-08-05T08:51:04.209Z,101994.88
2022-08-05T08:53:37.348Z,101995.72
2022-08-05T08:56:06.149Z,101991.53
2022-08-05T08:58:37.236Z,101990.88
2022-08-05T09:01:15.838Z,102002.31
2022-08-05T09:03:48.184Z,101998.78
2022-08-05T09:06:20.413Z,102006.69
2022-08-05T09:08:48.212Z,102008.56
2022-08-05T09:11:15.181Z,102004.00
2022-08-05T09:14:09.138Z,102009.22
2022-08-05T09:16:32.318Z,102013.03
2022-08-05T09:18:59.231Z,102024.97
2022-08-05T09:22:22.079Z,102008.09
2022-08-05T09:24:15.409Z,102018.25
2022-08-05T09:26:46.272Z,102018.25
2022-08-05T09:29:17.568Z,102027.38
2022-08-05T09:32:45.931Z,102013.28
2022-08-05T09:34:55.943Z,102025.22
2022-08-05T09:38:16.366Z,102025.78
2022-08-05T09:40:33.548Z,102033.69
2022-08-05T09:43:01.270Z,102033.50
2022-08-05T09:46:06.960Z,102038.91
2022-08-05T09:48:27.002Z,102046.34
2022-08-05T09:51:03.749Z,102048.56
2022-08-05T09:53:54.617Z,102047.56
2022-08-05T09:56:30.247Z,102045.88
2022-08-05T09:59:17.532Z,102046.88
2022-08-05T10:01:46.600Z,102058.69
2022-08-05T10:04:16.080Z,102055.81
2022-08-05T10:06:59.518Z,102063.09
2022-08-05T10:09:29.323Z,102054.53
2022-08-05T10:12:30.530Z,102056.38
2022-08-05T10:15:13.812Z,102060.47
2022-08-05T10:17:47.408Z,102061.97
2022-08-05T10:20:23.833Z,102059.81
2022-08-05T10:22:52.002Z,102057.47
2022-08-05T10:25:19.654Z,102060.91
2022-08-05T10:28:13.635Z,102065.28
2022-08-05T10:32:46.845Z,102067.31
2022-08-05T10:33:28.836Z,102068.16
2022-08-05T10:35:59.733Z,102078.09
2022-08-05T10:38:28.558Z,102073.91
2022-08-05T10:41:12.401Z,102078.28
2022-08-05T10:44:00.947Z,102086.69
2022-08-05T10:46:50.859Z,102088.06
2022-08-05T10:49:26.915Z,102088.72
2022-08-05T10:52:00.516Z,102103.91
2022-08-05T10:55:06.208Z,102102.59
2022-08-05T10:57:33.898Z,102105.28
2022-08-05T11:00:20.140Z,102109.00
2022-08-05T11:03:23.747Z,102112.72
2022-08-05T11:06:15.407Z,102122.19
2022-08-05T11:09:24.245Z,102124.56
2022-08-05T11:12:27.091Z,102124.94
2022-08-05T11:15:20.773Z,102131.53
2022-08-05T11:17:59.134Z,102130.19
2022-08-05T11:20:54.802Z,102136.44
2022-08-05T11:24:04.208Z,102143.50
2022-08-05T11:26:32.927Z,102150.91
2022-08-05T11:29:11.897Z,102153.78
2022-08-05T11:31:57.072Z,102159.00
2022-08-05T11:34:38.131Z,102167.78
2022-08-05T11:37:06.162Z,102168.13
2022-08-05T11:40:00.758Z,102179.91
2022-08-05T11:42:38.087Z,102178.63
2022-08-05T11:45:23.430Z,102185.03
2022-08-05T11:47:54.510Z,102185.19
2022-08-05T11:50:21.636Z,102187.88
2022-08-05T11:52:50.258Z,102190.94
2022-08-05T11:55:18.722Z,102197.50
2022-08-05T11:58:10.720Z,102199.69
2022-08-05T12:00:38.331Z,102202.75
2022-08-05T12:03:28.797Z,102203.94
2022-08-05T12:06:06.101Z,102206.47
2022-08-05T12:08:50.088Z,102213.38
2022-08-05T12:11:20.876Z,102215.56
2022-08-05T12:14:04.361Z,102213.38
2022-08-05T12:16:38.368Z,102212.38
2022-08-05T12:19:08.386Z,102219.78
2022-08-05T12:21:57.084Z,102212.53
2022-08-05T12:24:24.641Z,102211.03
2022-08-05T12:26:53.946Z,102216.72
2022-08-05T12:29:23.488Z,102218.06
2022-08-05T12:31:58.437Z,102225.13
2022-08-05T12:34:31.858Z,102216.53
2022-08-05T12:37:07.433Z,102220.41
2022-08-05T12:39:37.535Z,102239.28
2022-08-05T12:42:14.867Z,102231.19
2022-08-05T12:44:43.150Z,102234.75
2022-08-05T12:47:12.408Z,102232.22
2022-08-05T12:50:03.565Z,102239.28
2022-08-05T12:52:38.606Z,102246.38
2022-08-05T12:55:33.073Z,102251.75
2022-08-05T12:58:52.626Z,102249.91
2022-08-05T13:02:00.940Z,102255.13
2022-08-05T13:03:41.799Z,102250.75
2022-08-05T13:06:17.067Z,102255.47
2022-08-05T13:08:52.371Z,102253.44
2022-08-05T13:11:59.982Z,102244.69
2022-08-05T13:14:36.196Z,102243.00
2022-08-05T13:17:16.075Z,102248.72
2022-08-05T13:20:00.569Z,102253.09
2022-08-05T13:22:29.842Z,102253.94
2022-08-05T13:25:00.870Z,102254.75
2022-08-05T13:27:39.089Z,102258.97
2022-08-05T13:30:36.132Z,102251.53
2022-08-05T13:33:01.471Z,102256.44
2022-08-05T13:35:42.522Z,102244.47
2022-08-05T13:38:28.426Z,102256.94
2022-08-05T13:40:59.023Z,102254.41
2022-08-05T13:43:44.247Z,102260.81
2022-08-05T13:46:13.724Z,102264.19
2022-08-05T13:48:57.576Z,102282.22
2022-08-05T13:51:36.650Z,102277.00
2022-08-05T13:54:11.719Z,102279.03
2022-08-05T13:56:39.738Z,102283.25
2022-08-05T13:59:20.027Z,102287.63
2022-08-05T14:01:58.016Z,102289.66
2022-08-05T14:04:50.569Z,102300.09
2022-08-05T14:08:02.706Z,102303.63
2022-08-05T14:10:28.240Z,102310.88
2022-08-05T14:12:57.087Z,102308.34
2022-08-05T14:16:07.635Z,102317.78
2022-08-05T14:18:17.617Z,102318.47
2022-08-05T14:20:47.700Z,102328.59
2022-08-05T14:23:25.109Z,102322.84
2022-08-05T14:25:57.885Z,102318.47
2022-08-05T14:28:27.300Z,102329.25
2022-08-05T14:30:54.887Z,102329.94
2022-08-05T14:33:22.737Z,102328.91
2022-08-05T14:35:51.759Z,102327.72
2022-08-05T14:38:31.832Z,102334.97
2022-08-05T14:41:00.924Z,102347.94
2022-08-05T14:43:53.930Z,102333.44
2022-08-05T14:46:14.094Z,102336.31
2022-08-05T14:48:40.740Z,102351.97
2022-08-05T14:51:08.387Z,102343.22
2022-08-05T14:53:44.476Z,102339.34
2022-08-05T14:56:11.825Z,102349.13
2022-08-05T14:58:47.920Z,102345.75
2022-08-05T15:01:47.614Z,102346.25
2022-08-05T15:04:11.563Z,102356.84
2022-08-05T15:06:38.859Z,102346.25
2022-08-05T15:09:07.456Z,102347.91
2022-08-05T15:11:51.275Z,102354.50
2022-08-05T15:14:33.274Z,102355.50
2022-08-05T15:17:03.985Z,102354.50
2022-08-05T15:19:32.044Z,102362.94
2022-08-05T15:22:01.040Z,102364.63
2022-08-05T15:24:28.629Z,102362.75
2022-08-05T15:26:55.940Z,102375.41
2022-08-05T15:29:23.676Z,102368.97
2022-08-05T15:31:56.528Z,102362.09
2022-08-05T15:34:32.166Z,102368.16
2022-08-05T15:37:03.444Z,102370.16
2022-08-05T15:40:59.659Z,102383.63
2022-08-05T15:42:55.148Z,102380.78
2022-08-05T15:45:07.403Z,102373.69
2022-08-05T15:47:36.567Z,102388.19
2022-08-05T15:50:04.527Z,102380.78
2022-08-05T15:52:53.226Z,102382.78
2022-08-05T15:55:25.101Z,102382.78
2022-08-05T15:58:07.290Z,102375.72
2022-08-05T16:01:03.529Z,102382.97
2022-08-05T16:03:20.527Z,102385.00
2022-08-05T16:05:50.799Z,102395.28
2022-08-05T16:08:19.287Z,102394.94
2022-08-05T16:10:45.840Z,102383.13
2022-08-05T16:13:12.708Z,102397.47
2022-08-05T16:15:51.825Z,102396.63
2022-08-05T16:18:19.643Z,102393.94
2022-08-05T16:20:46.323Z,102391.56
2022-08-05T16:23:12.960Z,102400.00
2022-08-05T16:25:40.045Z,102399.00
2022-08-05T16:28:10.262Z,102404.38
2022-08-05T16:30:37.411Z,102402.38
2022-08-05T16:33:04.033Z,102403.22
2022-08-05T16:35:33.509Z,102400.69
2022-08-05T16:38:18.713Z,102406.25
2022-08-05T16:40:55.009Z,102422.44
2022-08-05T16:43:31.791Z,102407.44
2022-08-05T16:46:07.518Z,102417.22
2022-08-05T16:48:39.650Z,102418.22
2022-08-05T16:51:09.966Z,102427.53
2022-08-05T16:54:04.956Z,102424.63
2022-08-05T16:56:29.608Z,102423.63
2022-08-05T16:58:57.172Z,102425.81
2022-08-05T17:01:24.549Z,102423.13
2022-08-05T17:03:52.016Z,102433.41
2022-08-05T17:06:19.262Z,102434.75
2022-08-05T17:08:53.645Z,102429.19
2022-08-05T17:11:25.431Z,102436.09
2022-08-05T17:14:00.695Z,102436.28
2022-08-05T17:16:36.608Z,102448.28
2022-08-05T17:19:07.373Z,102444.22
2022-08-05T17:21:36.952Z,102446.06
2022-08-05T17:24:19.778Z,102449.25
2022-08-05T17:26:59.823Z,102447.56
2022-08-05T17:29:33.973Z,102439.16
2022-08-05T17:32:17.366Z,102442.34
2022-08-05T17:34:47.837Z,102447.94
2022-08-05T17:37:39.669Z,102439.16
2022-08-05T17:40:10.196Z,102450.97
2022-08-05T17:42:41.656Z,102452.81
2022-08-05T17:45:20.074Z,102450.44
2022-08-05T17:47:52.931Z,102460.41
2022-08-05T17:50:27.798Z,102468.81
2022-08-05T17:52:55.848Z,102463.09
2022-08-05T17:55:27.340Z,102460.75
2022-08-05T17:58:02.114Z,102457.53
2022-08-05T18:00:29.748Z,102475.56
2022-08-05T18:02:56.488Z,102478.59
2022-08-05T18:05:23.887Z,102469.00
2022-08-05T18:07:54.834Z,102474.56
2022-08-05T18:10:24.237Z,102480.13
2022-08-05T18:12:51.087Z,102479.44
2022-08-05T18:15:17.791Z,102475.41
2022-08-05T18:18:01.212Z,102493.25
2022-08-05T18:20:32.507Z,102487.19
2022-08-05T18:23:11.536Z,102494.44
2022-08-05T18:25:44.909Z,102489.41
2022-08-05T18:28:16.305Z,102507.25
2022-08-05T18:30:50.767Z,102502.19
2022-08-05T18:33:22.658Z,102507.59
2022-08-05T18:36:03.439Z,102504.22
2022-08-05T18:38:34.293Z,102503.84
2022-08-05T18:42:00.659Z,102521.56
2022-08-05T18:43:49.404Z,102509.94
2022-08-05T18:46:19.518Z,102517.50
2022-08-05T18:48:46.246Z,102534.88
2022-08-05T18:52:04.015Z,102521.72
2022-08-05T18:54:19.535Z,102529.97
2022-08-05T18:56:51.110Z,102539.06
2022-08-05T18:59:44.113Z,102533.78
2022-08-05T19:02:11.403Z,102534.97
2022-08-05T19:05:01.363Z,102535.47
2022-08-05T19:07:46.725Z,102545.25
2022-08-05T19:10:14.760Z,102547.25
2022-08-05T19:12:41.443Z,102545.56
2022-08-05T19:15:10.606Z,102549.28
2022-08-05T19:17:59.073Z,102552.28
2022-08-05T19:20:36.791Z,102549.91
2022-08-05T19:23:03.379Z,102552.44
2022-08-05T19:25:42.015Z,102558.00
2022-08-05T19:28:10.198Z,102554.28
2022-08-05T19:30:36.796Z,102559.50
2022-08-05T19:33:04.696Z,102563.38
2022-08-05T19:35:55.831Z,102550.22
2022-08-05T19:38:26.403Z,102568.06
2022-08-05T19:40:53.498Z,102569.38
2022-08-05T19:44:04.868Z,102575.28
2022-08-05T19:46:06.632Z,102575.75
2022-08-05T19:48:53.157Z,102580.59
2022-08-05T19:51:56.402Z,102587.50
2022-08-05T19:54:12.892Z,102584.06
2022-08-05T19:56:54.229Z,102594.47
2022-08-05T19:59:51.678Z,102593.63
2022-08-05T20:02:07.636Z,102590.25
2022-08-05T20:04:34.335Z,102592.22
2022-08-05T20:07:01.904Z,102602.13
2022-08-05T20:09:28.574Z,102602.28
2022-08-05T20:12:15.173Z,102604.47
2022-08-05T20:14:41.960Z,102611.72
2022-08-05T20:17:09.998Z,102611.00
2022-08-05T20:19:43.009Z,102619.94
2022-08-05T20:22:09.875Z,102631.72
2022-08-05T20:24:36.455Z,102619.25
2022-08-05T20:27:04.746Z,102627.78
2022-08-05T20:29:38.133Z,102630.47
2022-08-05T20:32:06.588Z,102638.09
2022-08-05T20:34:33.195Z,102634.16
2022-08-05T20:37:00.859Z,102634.84
2022-08-05T20:39:35.560Z,102636.69
2022-08-05T20:42:04.976Z,102636.03
2022-08-05T20:44:33.142Z,102641.03
2022-08-05T20:47:06.739Z,102643.88
2022-08-05T20:49:39.387Z,102642.34
2022-08-05T20:52:07.338Z,102648.88
2022-08-05T20:54:43.377Z,102655.44
2022-08-05T20:57:42.228Z,102651.22
2022-08-05T21:00:21.112Z,102655.88
2022-08-05T21:03:00.082Z,102653.34
2022-08-05T21:05:38.140Z,102651.50
2022-08-05T21:08:14.980Z,102657.03
2022-08-05T21:10:48.450Z,102652.66
2022-08-05T21:13:26.558Z,102655.19
2022-08-05T21:16:02.484Z,102656.88
2022-08-05T21:18:30.340Z,102660.44
2022-08-05T21:20:57.514Z,102661.44
2022-08-05T21:23:24.778Z,102644.72
2022-08-05T21:25:51.619Z,102662.28
2022-08-05T21:28:23.775Z,102664.97
2022-08-05T21:30:57.264Z,102664.25
2022-08-05T21:33:24.194Z,102660.72
2022-08-05T21:36:04.007Z,102653.28
2022-08-05T21:38:30.624Z,102675.31
2022-08-05T21:40:57.405Z,102662.22
2022-08-05T21:43:25.140Z,102662.66
2022-08-05T21:45:56.322Z,102670.28
2022-08-05T21:48:24.592Z,102660.66
2022-08-05T21:50:54.084Z,102674.81
2022-08-05T21:53:21.565Z,102672.28
2022-08-05T21:56:05.423Z,102672.28
2022-08-05T21:58:42.430Z,102679.50
2022-08-05T22:01:23.956Z,102672.56
2022-08-05T22:03:53.171Z,102664.50
2022-08-05T22:06:22.821Z,102683.03
2022-08-05T22:09:01.946Z,102676.09
2022-08-05T22:11:40.810Z,102680.78
2022-08-05T22:14:35.803Z,102685.78
2022-08-05T22:16:57.033Z,102677.69
2022-08-05T22:20:01.472Z,102680.56
2022-08-05T22:22:12.238Z,102676.03
2022-08-05T22:24:59.352Z,102669.97
2022-08-05T22:28:09.495Z,102681.25
2022-08-05T22:30:35.753Z,102686.09
2022-08-05T22:33:03.919Z,102685.41
2022-08-05T22:35:48.499Z,102689.78
2022-08-05T22:38:16.069Z,102684.00
2022-08-05T22:40:49.323Z,102688.94
2022-08-05T22:43:16.809Z,102690.63
2022-08-05T22:46:11.887Z,102701.56
2022-08-05T22:48:39.855Z,102693.47
2022-08-05T22:51:07.706Z,102699.69
2022-08-05T22:53:35.595Z,102704.09
2022-08-05T22:56:02.716Z,102710.31
2022-08-05T22:58:29.306Z,102710.31
2022-08-05T23:00:56.889Z,102709.63
2022-08-05T23:03:59.015Z,102707.84
2022-08-05T23:06:10.402Z,102711.66
2022-08-05T23:08:36.943Z,102713.63
2022-08-05T23:11:03.502Z,102707.16
2022-08-05T23:13:30.087Z,102712.38
2022-08-05T23:15:56.885Z,102709.16
2022-08-05T23:18:23.510Z,102708.63
2022-08-05T23:20:50.045Z,102722.91
2022-08-05T23:23:16.606Z,102724.47
2022-08-05T23:25:52.003Z,102723.75
2022-08-05T23:28:21.392Z,102726.72
2022-08-05T23:30:53.459Z,102735.78
2022-08-05T23:33:22.199Z,102736.78
2022-08-05T23:35:56.003Z,102740.63
2022-08-05T23:38:24.389Z,102741.94
2022-08-05T23:40:52.812Z,102737.41
2022-08-05T23:43:25.553Z,102738.38
2022-08-05T23:46:20.614Z,102749.28
2022-08-05T23:48:59.965Z,102746.88
2022-08-05T23:51:53.733Z,102741.66
2022-08-05T23:54:30.471Z,102744.34
2022-08-05T23:57:04.928Z,102740.81
